sensor_id;sensor_type;location;lat;lon;timestamp;pressure;altitude;pressure_sealevel;temperature;humidity
47809;BME280;33573;38.790;-77.084;2024-01-30T00:00:51;101490.35;;;19.50;24.89
47809;BME280;33573;38.790;-77.084;2024-01-30T00:05:39;101492.93;;;19.38;25.01
47809;BME280;33573;38.790;-77.084;2024-01-30T00:08:07;101506.14;;;19.15;25.15
47809;BME280;33573;38.790;-77.084;2024-01-30T00:10:33;101510.31;;;18.80;25.40
47809;BME280;33573;38.790;-77.084;2024-01-30T00:13:03;101522.20;;;18.77;25.76
47809;BME280;33573;38.790;-77.084;2024-01-30T00:15:24;101527.87;;;18.76;25.74
47809;BME280;33573;38.790;-77.084;2024-01-30T00:17:49;101532.01;;;18.52;26.03
47809;BME280;33573;38.790;-77.084;2024-01-30T00:20:20;101539.69;;;18.60;25.98
47809;BME280;33573;38.790;-77.084;2024-01-30T00:22:40;101539.40;;;19.09;25.42
47809;BME280;33573;38.790;-77.084;2024-01-30T00:25:06;101540.00;;;19.24;25.30
47809;BME280;33573;38.790;-77.084;2024-01-30T00:27:35;101543.25;;;19.05;25.40
47809;BME280;33573;38.790;-77.084;2024-01-30T00:29:57;101541.44;;;19.07;25.64
47809;BME280;33573;38.790;-77.084;2024-01-30T00:32:22;101547.80;;;18.86;26.07
47809;BME280;33573;38.790;-77.084;2024-01-30T00:34:52;101545.48;;;18.72;26.25
47809;BME280;33573;38.790;-77.084;2024-01-30T00:37:13;101551.79;;;18.44;26.74
47809;BME280;33573;38.790;-77.084;2024-01-30T00:39:38;101555.78;;;18.57;26.38
47809;BME280;33573;38.790;-77.084;2024-01-30T00:44:29;101569.08;;;18.81;26.19
47809;BME280;33573;38.790;-77.084;2024-01-30T00:46:55;101577.49;;;19.08;25.82
47809;BME280;33573;38.790;-77.084;2024-01-30T00:49:24;101576.41;;;19.27;25.64
47809;BME280;33573;38.790;-77.084;2024-01-30T00:51:46;101582.67;;;18.89;25.94
47809;BME280;33573;38.790;-77.084;2024-01-30T00:54:11;101590.22;;;18.93;26.06
47809;BME280;33573;38.790;-77.084;2024-01-30T00:56:31;101588.46;;;18.47;26.32
47809;BME280;33573;38.790;-77.084;2024-01-30T00:59:02;101597.45;;;18.97;26.34
47809;BME280;33573;38.790;-77.084;2024-01-30T01:01:27;101598.55;;;18.70;26.23
47809;BME280;33573;38.790;-77.084;2024-01-30T01:03:57;101600.82;;;18.65;26.40
47809;BME280;33573;38.790;-77.084;2024-01-30T01:06:18;101597.07;;;18.74;26.34
47809;BME280;33573;38.790;-77.084;2024-01-30T01:08:44;101596.81;;;18.59;26.37
47809;BME280;33573;38.790;-77.084;2024-01-30T01:11:13;101601.19;;;19.04;25.97
47809;BME280;33573;38.790;-77.084;2024-01-30T01:13:35;101605.68;;;18.95;25.80
47809;BME280;33573;38.790;-77.084;2024-01-30T01:16:00;101608.06;;;19.10;25.96
47809;BME280;33573;38.790;-77.084;2024-01-30T01:18:30;101603.43;;;18.88;26.16
47809;BME280;33573;38.790;-77.084;2024-01-30T01:20:51;101609.81;;;18.82;26.22
47809;BME280;33573;38.790;-77.084;2024-01-30T01:23:17;101612.59;;;18.78;26.25
47809;BME280;33573;38.790;-77.084;2024-01-30T01:25:46;101612.94;;;18.83;26.22
47809;BME280;33573;38.790;-77.084;2024-01-30T01:28:08;101615.89;;;18.72;26.29
47809;BME280;33573;38.790;-77.084;2024-01-30T01:30:33;101623.21;;;18.70;26.22
47809;BME280;33573;38.790;-77.084;2024-01-30T01:33:03;101630.41;;;18.53;26.41
47809;BME280;33573;38.790;-77.084;2024-01-30T01:35:24;101632.62;;;18.72;26.15
47809;BME280;33573;38.790;-77.084;2024-01-30T01:37:49;101641.46;;;18.84;26.13
47809;BME280;33573;38.790;-77.084;2024-01-30T01:40:19;101645.30;;;19.08;25.96
47809;BME280;33573;38.790;-77.084;2024-01-30T01:42:40;101645.72;;;18.90;26.24
47809;BME280;33573;38.790;-77.084;2024-01-30T01:45:06;101651.08;;;18.87;26.25
47809;BME280;33573;38.790;-77.084;2024-01-30T01:47:35;101653.51;;;18.74;26.41
47809;BME280;33573;38.790;-77.084;2024-01-30T01:49:57;101658.07;;;18.39;26.52
47809;BME280;33573;38.790;-77.084;2024-01-30T01:52:22;101659.43;;;18.62;26.47
47809;BME280;33573;38.790;-77.084;2024-01-30T01:54:52;101657.50;;;18.09;26.54
47809;BME280;33573;38.790;-77.084;2024-01-30T01:57:13;101661.61;;;18.58;26.43
47809;BME280;33573;38.790;-77.084;2024-01-30T01:59:38;101664.50;;;18.85;26.21
47809;BME280;33573;38.790;-77.084;2024-01-30T02:02:08;101659.94;;;19.13;25.91
47809;BME280;33573;38.790;-77.084;2024-01-30T02:04:29;101664.33;;;19.36;25.73
47809;BME280;33573;38.790;-77.084;2024-01-30T02:06:55;101662.97;;;19.05;26.06
47809;BME280;33573;38.790;-77.084;2024-01-30T02:09:24;101667.20;;;18.92;26.17
47809;BME280;33573;38.790;-77.084;2024-01-30T02:11:41;101672.18;;;18.82;26.30
47809;BME280;33573;38.790;-77.084;2024-01-30T02:14:11;101674.44;;;18.58;26.45
47809;BME280;33573;38.790;-77.084;2024-01-30T02:16:37;101681.02;;;18.46;26.56
47809;BME280;33573;38.790;-77.084;2024-01-30T02:19:02;101686.26;;;18.53;26.48
47809;BME280;33573;38.790;-77.084;2024-01-30T02:21:27;101690.68;;;18.54;26.57
47809;BME280;33573;38.790;-77.084;2024-01-30T02:23:57;101695.64;;;18.57;26.52
47809;BME280;33573;38.790;-77.084;2024-01-30T02:26:18;101694.88;;;18.52;26.49
47809;BME280;33573;38.790;-77.084;2024-01-30T02:28:44;101690.14;;;18.84;26.15
47809;BME280;33573;38.790;-77.084;2024-01-30T02:31:09;101689.03;;;19.04;25.99
47809;BME280;33573;38.790;-77.084;2024-01-30T02:33:39;101688.98;;;19.27;25.77
47809;BME280;33573;38.790;-77.084;2024-01-30T02:36:00;101692.75;;;19.06;25.98
47809;BME280;33573;38.790;-77.084;2024-01-30T02:38:26;101695.27;;;18.80;26.22
47809;BME280;33573;38.790;-77.084;2024-01-30T02:40:46;101698.37;;;18.76;26.28
47809;BME280;33573;38.790;-77.084;2024-01-30T02:43:11;101704.10;;;18.60;26.42
47809;BME280;33573;38.790;-77.084;2024-01-30T02:45:37;101707.67;;;18.62;26.39
47809;BME280;33573;38.790;-77.084;2024-01-30T02:48:11;101708.36;;;18.58;26.42
47809;BME280;33573;38.790;-77.084;2024-01-30T02:50:33;101710.40;;;18.84;26.45
47809;BME280;33573;38.790;-77.084;2024-01-30T02:52:58;101713.27;;;18.53;26.49
47809;BME280;33573;38.790;-77.084;2024-01-30T02:55:28;101713.97;;;18.66;26.33
47809;BME280;33573;38.790;-77.084;2024-01-30T02:57:49;101711.77;;;18.87;26.12
47809;BME280;33573;38.790;-77.084;2024-01-30T03:00:15;101708.90;;;19.10;25.91
47809;BME280;33573;38.790;-77.084;2024-01-30T03:02:44;101707.95;;;19.18;25.83
47809;BME280;33573;38.790;-77.084;2024-01-30T03:05:07;101707.61;;;18.69;26.11
47809;BME280;33573;38.790;-77.084;2024-01-30T03:07:31;101705.47;;;19.09;26.15
47809;BME280;33573;38.790;-77.084;2024-01-30T03:10:00;101710.27;;;18.71;26.29
47809;BME280;33573;38.790;-77.084;2024-01-30T03:12:22;101713.59;;;18.74;26.20
47809;BME280;33573;38.790;-77.084;2024-01-30T03:14:47;101716.30;;;18.20;26.66
47809;BME280;33573;38.790;-77.084;2024-01-30T03:17:17;101719.71;;;18.34;26.81
47809;BME280;33573;38.790;-77.084;2024-01-30T03:19:33;101722.92;;;17.88;27.03
47809;BME280;33573;38.790;-77.084;2024-01-30T03:22:04;101723.43;;;18.16;26.98
47809;BME280;33573;38.790;-77.084;2024-01-30T03:24:33;101723.75;;;18.33;27.09
47809;BME280;33573;38.790;-77.084;2024-01-30T03:26:49;101720.95;;;18.29;27.13
47809;BME280;33573;38.790;-77.084;2024-01-30T03:29:20;101720.90;;;17.77;27.15
47809;BME280;33573;38.790;-77.084;2024-01-30T03:31:50;101724.65;;;17.81;27.16
47809;BME280;33573;38.790;-77.084;2024-01-30T03:34:11;101723.19;;;17.96;27.14
47809;BME280;33573;38.790;-77.084;2024-01-30T03:36:36;101721.17;;;18.16;27.15
47809;BME280;33573;38.790;-77.084;2024-01-30T03:39:06;101721.88;;;17.92;27.16
47809;BME280;33573;38.790;-77.084;2024-01-30T03:41:27;101721.60;;;18.15;27.17
47809;BME280;33573;38.790;-77.084;2024-01-30T03:43:53;101726.15;;;18.04;27.20
47809;BME280;33573;38.790;-77.084;2024-01-30T03:46:22;101725.55;;;17.76;27.23
47809;BME280;33573;38.790;-77.084;2024-01-30T03:48:44;101724.40;;;17.75;27.21
47809;BME280;33573;38.790;-77.084;2024-01-30T03:51:09;101720.37;;;17.99;27.16
47809;BME280;33573;38.790;-77.084;2024-01-30T03:53:39;101722.60;;;17.73;27.13
47809;BME280;33573;38.790;-77.084;2024-01-30T03:56:00;101722.46;;;17.97;27.16
47809;BME280;33573;38.790;-77.084;2024-01-30T03:58:25;101725.14;;;17.93;27.12
47809;BME280;33573;38.790;-77.084;2024-01-30T04:00:55;101725.94;;;17.88;27.13
47809;BME280;33573;38.790;-77.084;2024-01-30T04:03:16;101727.88;;;17.88;27.13
47809;BME280;33573;38.790;-77.084;2024-01-30T04:05:42;101730.11;;;17.80;27.17
47809;BME280;33573;38.790;-77.084;2024-01-30T04:08:07;101727.34;;;17.85;27.13
47809;BME280;33573;38.790;-77.084;2024-01-30T04:10:33;101727.07;;;17.86;27.04
47809;BME280;33573;38.790;-77.084;2024-01-30T04:12:58;101725.64;;;17.57;27.11
47809;BME280;33573;38.790;-77.084;2024-01-30T04:15:28;101725.39;;;17.77;27.10
47809;BME280;33573;38.790;-77.084;2024-01-30T04:17:49;101726.96;;;17.75;27.06
47809;BME280;33573;38.790;-77.084;2024-01-30T04:20:15;101732.95;;;17.70;27.12
47809;BME280;33573;38.790;-77.084;2024-01-30T04:22:44;101740.53;;;17.75;27.05
47809;BME280;33573;38.790;-77.084;2024-01-30T04:25:06;101740.89;;;17.70;27.08
47809;BME280;33573;38.790;-77.084;2024-01-30T04:27:31;101741.15;;;17.69;27.10
47809;BME280;33573;38.790;-77.084;2024-01-30T04:30:01;101743.65;;;17.67;27.06
47809;BME280;33573;38.790;-77.084;2024-01-30T04:32:22;101745.02;;;17.50;26.97
47809;BME280;33573;38.790;-77.084;2024-01-30T04:34:47;101744.37;;;17.50;26.99
47809;BME280;33573;38.790;-77.084;2024-01-30T04:37:17;101748.14;;;17.68;27.02
47809;BME280;33573;38.790;-77.084;2024-01-30T04:39:38;101746.43;;;17.69;26.99
47809;BME280;33573;38.790;-77.084;2024-01-30T04:42:04;101744.59;;;17.63;27.04
47809;BME280;33573;38.790;-77.084;2024-01-30T04:44:33;101749.24;;;17.67;26.98
47809;BME280;33573;38.790;-77.084;2024-01-30T04:46:55;101750.64;;;17.60;27.05
47809;BME280;33573;38.790;-77.084;2024-01-30T04:49:20;101750.79;;;17.59;27.02
47809;BME280;33573;38.790;-77.084;2024-01-30T04:51:50;101753.34;;;17.59;27.00
47809;BME280;33573;38.790;-77.084;2024-01-30T04:54:11;101754.01;;;17.59;26.98
47809;BME280;33573;38.790;-77.084;2024-01-30T04:56:36;101751.39;;;17.35;26.95
47809;BME280;33573;38.790;-77.084;2024-01-30T04:59:06;101750.85;;;17.65;26.86
47809;BME280;33573;38.790;-77.084;2024-01-30T05:01:27;101748.59;;;17.63;26.85
47809;BME280;33573;38.790;-77.084;2024-01-30T05:03:53;101748.25;;;17.63;26.89
47809;BME280;33573;38.790;-77.084;2024-01-30T05:06:13;101749.65;;;17.40;26.83
47809;BME280;33573;38.790;-77.084;2024-01-30T05:08:44;101750.21;;;17.61;26.88
47809;BME280;33573;38.790;-77.084;2024-01-30T05:11:09;101748.45;;;17.65;26.85
47809;BME280;33573;38.790;-77.084;2024-01-30T05:13:39;101749.06;;;17.66;26.80
47809;BME280;33573;38.790;-77.084;2024-01-30T05:16:02;101748.98;;;17.56;26.89
47809;BME280;33573;38.790;-77.084;2024-01-30T05:18:26;101752.00;;;17.55;26.90
47809;BME280;33573;38.790;-77.084;2024-01-30T05:20:51;101751.03;;;17.33;26.85
47809;BME280;33573;38.790;-77.084;2024-01-30T05:23:21;101748.74;;;17.56;26.87
47809;BME280;33573;38.790;-77.084;2024-01-30T05:25:42;101744.21;;;17.63;26.79
47809;BME280;33573;38.790;-77.084;2024-01-30T05:28:08;101747.20;;;17.55;26.84
47809;BME280;33573;38.790;-77.084;2024-01-30T05:30:37;101745.54;;;17.51;26.84
47809;BME280;33573;38.790;-77.084;2024-01-30T05:32:58;101746.11;;;17.56;26.75
47809;BME280;33573;38.790;-77.084;2024-01-30T05:35:24;101744.15;;;17.48;26.88
47809;BME280;33573;38.790;-77.084;2024-01-30T05:37:44;101746.85;;;17.46;26.84
47809;BME280;33573;38.790;-77.084;2024-01-30T05:40:15;101749.63;;;17.49;26.85
47809;BME280;33573;38.790;-77.084;2024-01-30T05:42:40;101751.19;;;17.57;26.68
47809;BME280;33573;38.790;-77.084;2024-01-30T05:45:10;101750.05;;;17.53;26.71
47809;BME280;33573;38.790;-77.084;2024-01-30T05:47:31;101755.50;;;17.59;26.66
47809;BME280;33573;38.790;-77.084;2024-01-30T05:49:57;101754.76;;;17.54;26.71
47809;BME280;33573;38.790;-77.084;2024-01-30T05:52:26;101757.02;;;17.28;26.72
47809;BME280;33573;38.790;-77.084;2024-01-30T05:54:48;101752.61;;;17.62;26.59
47809;BME280;33573;38.790;-77.084;2024-01-30T05:57:13;101750.18;;;17.74;26.68
47809;BME280;33573;38.790;-77.084;2024-01-30T05:59:43;101753.17;;;17.53;26.64
47809;BME280;33573;38.790;-77.084;2024-01-30T06:02:04;101754.48;;;17.55;26.64
47809;BME280;33573;38.790;-77.084;2024-01-30T06:04:30;101756.32;;;17.55;26.61
47809;BME280;33573;38.790;-77.084;2024-01-30T06:06:59;101755.61;;;17.54;26.60
47809;BME280;33573;38.790;-77.084;2024-01-30T06:09:20;101754.96;;;17.53;26.61
47809;BME280;33573;38.790;-77.084;2024-01-30T06:11:41;101758.21;;;17.61;26.51
47809;BME280;33573;38.790;-77.084;2024-01-30T06:14:15;101757.89;;;17.52;26.55
47809;BME280;33573;38.790;-77.084;2024-01-30T06:16:32;101758.69;;;17.47;26.60
47809;BME280;33573;38.790;-77.084;2024-01-30T06:19:02;101757.76;;;17.53;26.53
47809;BME280;33573;38.790;-77.084;2024-01-30T06:21:32;101762.35;;;17.51;26.57
47809;BME280;33573;38.790;-77.084;2024-01-30T06:23:53;101766.40;;;17.24;26.56
47809;BME280;33573;38.790;-77.084;2024-01-30T06:26:19;101771.27;;;17.44;26.59
47809;BME280;33573;38.790;-77.084;2024-01-30T06:28:48;101771.42;;;17.39;26.61
47809;BME280;33573;38.790;-77.084;2024-01-30T06:31:10;101767.71;;;17.35;26.67
47809;BME280;33573;38.790;-77.084;2024-01-30T06:33:35;101768.77;;;17.41;26.60
47809;BME280;33573;38.790;-77.084;2024-01-30T06:36:05;101773.87;;;17.63;26.60
47809;BME280;33573;38.790;-77.084;2024-01-30T06:38:26;101777.02;;;17.42;26.62
47809;BME280;33573;38.790;-77.084;2024-01-30T06:40:51;101781.77;;;17.40;26.55
47809;BME280;33573;38.790;-77.084;2024-01-30T06:43:22;101780.81;;;17.41;26.55
47809;BME280;33573;38.790;-77.084;2024-01-30T06:45:42;101782.49;;;17.37;26.59
47809;BME280;33573;38.790;-77.084;2024-01-30T06:48:08;101780.25;;;17.32;26.62
47809;BME280;33573;38.790;-77.084;2024-01-30T06:50:37;101784.44;;;17.26;26.67
47809;BME280;33573;38.790;-77.084;2024-01-30T06:52:54;101781.06;;;17.57;26.59
47809;BME280;33573;38.790;-77.084;2024-01-30T06:55:19;101783.79;;;17.40;26.51
47809;BME280;33573;38.790;-77.084;2024-01-30T06:57:54;101783.47;;;17.44;26.48
47809;BME280;33573;38.790;-77.084;2024-01-30T07:00:16;101789.29;;;17.40;26.50
47809;BME280;33573;38.790;-77.084;2024-01-30T07:02:41;101791.45;;;17.27;26.59
47809;BME280;33573;38.790;-77.084;2024-01-30T07:05:10;101791.29;;;17.29;26.58
47809;BME280;33573;38.790;-77.084;2024-01-30T07:07:32;101788.91;;;17.51;26.57
47809;BME280;33573;38.790;-77.084;2024-01-30T07:09:57;101789.41;;;17.25;26.57
47809;BME280;33573;38.790;-77.084;2024-01-30T07:12:27;101789.63;;;17.28;26.52
47809;BME280;33573;38.790;-77.084;2024-01-30T07:14:43;101787.84;;;17.26;26.56
47809;BME280;33573;38.790;-77.084;2024-01-30T07:17:13;101793.07;;;17.48;26.57
47809;BME280;33573;38.790;-77.084;2024-01-30T07:19:43;101796.63;;;17.29;26.51
47809;BME280;33573;38.790;-77.084;2024-01-30T07:22:05;101798.60;;;17.49;26.52
47809;BME280;33573;38.790;-77.084;2024-01-30T07:24:30;101798.43;;;17.25;26.52
47809;BME280;33573;38.790;-77.084;2024-01-30T07:26:55;101793.34;;;17.23;26.52
47809;BME280;33573;38.790;-77.084;2024-01-30T07:29:16;101792.13;;;17.23;26.51
47809;BME280;33573;38.790;-77.084;2024-01-30T07:31:46;101792.58;;;17.30;26.45
47809;BME280;33573;38.790;-77.084;2024-01-30T07:34:16;101795.08;;;17.22;26.52
47809;BME280;33573;38.790;-77.084;2024-01-30T07:36:37;101799.71;;;17.15;26.55
47809;BME280;33573;38.790;-77.084;2024-01-30T07:39:03;101799.78;;;17.26;26.45
47809;BME280;33573;38.790;-77.084;2024-01-30T07:41:23;101801.35;;;17.15;26.55
47809;BME280;33573;38.790;-77.084;2024-01-30T07:43:54;101804.40;;;17.16;26.53
47809;BME280;33573;38.790;-77.084;2024-01-30T07:46:19;101807.18;;;17.41;26.53
47809;BME280;33573;38.790;-77.084;2024-01-30T07:48:45;101810.08;;;17.17;26.49
47809;BME280;33573;38.790;-77.084;2024-01-30T07:51:14;101809.72;;;17.37;26.53
47809;BME280;33573;38.790;-77.084;2024-01-30T07:53:36;101807.88;;;17.17;26.47
47809;BME280;33573;38.790;-77.084;2024-01-30T07:56:01;101803.79;;;17.17;26.45
47809;BME280;33573;38.790;-77.084;2024-01-30T07:58:31;101800.43;;;17.13;26.47
47809;BME280;33573;38.790;-77.084;2024-01-30T08:00:52;101801.98;;;17.09;26.53
47809;BME280;33573;38.790;-77.084;2024-01-30T08:03:17;101807.23;;;17.11;26.49
47809;BME280;33573;38.790;-77.084;2024-01-30T08:05:47;101804.41;;;17.10;26.47
47809;BME280;33573;38.790;-77.084;2024-01-30T08:08:08;101806.68;;;17.14;26.45
47809;BME280;33573;38.790;-77.084;2024-01-30T08:10:34;101808.05;;;17.13;26.43
47809;BME280;33573;38.790;-77.084;2024-01-30T08:12:59;101812.18;;;17.08;26.46
47809;BME280;33573;38.790;-77.084;2024-01-30T08:15:25;101808.14;;;17.04;26.50
47809;BME280;33573;38.790;-77.084;2024-01-30T08:17:50;101805.45;;;17.11;26.43
47809;BME280;33573;38.790;-77.084;2024-01-30T08:20:20;101801.89;;;17.06;26.45
47809;BME280;33573;38.790;-77.084;2024-01-30T08:22:41;101803.30;;;17.27;26.46
47809;BME280;33573;38.790;-77.084;2024-01-30T08:25:07;101804.53;;;16.99;26.50
47809;BME280;33573;38.790;-77.084;2024-01-30T08:27:36;101804.49;;;17.06;26.46
47809;BME280;33573;38.790;-77.084;2024-01-30T08:29:53;101805.05;;;17.29;26.43
47809;BME280;33573;38.790;-77.084;2024-01-30T08:32:18;101801.97;;;17.28;26.42
47809;BME280;33573;38.790;-77.084;2024-01-30T08:34:49;101806.53;;;16.91;26.55
47809;BME280;33573;38.790;-77.084;2024-01-30T08:37:14;101808.24;;;16.99;26.48
47809;BME280;33573;38.790;-77.084;2024-01-30T08:39:35;101803.94;;;17.28;26.41
47809;BME280;33573;38.790;-77.084;2024-01-30T08:42:09;101798.23;;;17.34;26.33
47809;BME280;33573;38.790;-77.084;2024-01-30T08:44:30;101800.38;;;17.29;26.36
47809;BME280;33573;38.790;-77.084;2024-01-30T08:46:56;101798.82;;;17.10;26.28
47809;BME280;33573;38.790;-77.084;2024-01-30T08:49:26;101797.55;;;17.04;26.33
47809;BME280;33573;38.790;-77.084;2024-01-30T08:51:47;101798.81;;;17.08;26.29
47809;BME280;33573;38.790;-77.084;2024-01-30T08:54:12;101795.04;;;17.05;26.29
47809;BME280;33573;38.790;-77.084;2024-01-30T08:56:38;101785.20;;;17.44;26.39
47809;BME280;33573;38.790;-77.084;2024-01-30T08:59:03;101782.15;;;17.23;26.32
47809;BME280;33573;38.790;-77.084;2024-01-30T09:01:29;101778.38;;;16.94;26.36
47809;BME280;33573;38.790;-77.084;2024-01-30T09:03:58;101783.12;;;17.24;26.29
47809;BME280;33573;38.790;-77.084;2024-01-30T09:06:20;101780.21;;;16.94;26.34
47809;BME280;33573;38.790;-77.084;2024-01-30T09:08:45;101782.00;;;16.93;26.37
47809;BME280;33573;38.790;-77.084;2024-01-30T09:11:15;101780.63;;;17.23;26.25
47809;BME280;33573;38.790;-77.084;2024-01-30T09:13:36;101780.49;;;16.99;26.25
47809;BME280;33573;38.790;-77.084;2024-01-30T09:16:02;101786.61;;;17.00;26.23
47809;BME280;33573;38.790;-77.084;2024-01-30T09:18:22;101781.80;;;17.49;26.21
47809;BME280;33573;38.790;-77.084;2024-01-30T09:20:53;101783.57;;;16.90;26.29
47809;BME280;33573;38.790;-77.084;2024-01-30T09:23:18;101784.14;;;17.31;26.35
47809;BME280;33573;38.790;-77.084;2024-01-30T09:25:48;101785.55;;;17.19;26.25
47809;BME280;33573;38.790;-77.084;2024-01-30T09:28:09;101784.33;;;16.85;26.33
47809;BME280;33573;38.790;-77.084;2024-01-30T09:30:29;101786.12;;;17.17;26.22
47809;BME280;33573;38.790;-77.084;2024-01-30T09:33:04;101784.47;;;17.10;26.29
47809;BME280;33573;38.790;-77.084;2024-01-30T09:35:25;101784.13;;;17.10;26.30
47809;BME280;33573;38.790;-77.084;2024-01-30T09:37:51;101779.42;;;16.82;26.30
47809;BME280;33573;38.790;-77.084;2024-01-30T09:40:20;101781.83;;;17.08;26.28
47809;BME280;33573;38.790;-77.084;2024-01-30T09:42:43;101785.68;;;16.82;26.30
47809;BME280;33573;38.790;-77.084;2024-01-30T09:45:07;101791.37;;;16.79;26.29
47809;BME280;33573;38.790;-77.084;2024-01-30T09:47:39;101793.30;;;17.27;26.29
47809;BME280;33573;38.790;-77.084;2024-01-30T09:49:53;101796.28;;;17.07;26.25
47809;BME280;33573;38.790;-77.084;2024-01-30T09:52:24;101795.23;;;17.31;26.22
47809;BME280;33573;38.790;-77.084;2024-01-30T09:54:53;101796.99;;;16.85;26.18
47809;BME280;33573;38.790;-77.084;2024-01-30T09:57:15;101796.75;;;16.83;26.22
47809;BME280;33573;38.790;-77.084;2024-01-30T09:59:42;101796.33;;;17.28;26.18
47809;BME280;33573;38.790;-77.084;2024-01-30T10:02:10;101800.57;;;17.28;26.18
47809;BME280;33573;38.790;-77.084;2024-01-30T10:04:31;101805.18;;;16.78;26.23
47809;BME280;33573;38.790;-77.084;2024-01-30T10:06:57;101808.84;;;17.07;26.19
47809;BME280;33573;38.790;-77.084;2024-01-30T10:09:26;101811.12;;;17.00;26.23
47809;BME280;33573;38.790;-77.084;2024-01-30T10:11:48;101815.47;;;16.70;26.28
47809;BME280;33573;38.790;-77.084;2024-01-30T10:14:13;101821.52;;;16.99;26.25
47809;BME280;33573;38.790;-77.084;2024-01-30T10:16:38;101823.46;;;17.26;26.19
47809;BME280;33573;38.790;-77.084;2024-01-30T10:19:08;101828.67;;;17.03;26.13
47809;BME280;33573;38.790;-77.084;2024-01-30T10:21:30;101830.54;;;17.35;26.09
47809;BME280;33573;38.790;-77.084;2024-01-30T10:23:55;101838.33;;;17.18;26.02
47809;BME280;33573;38.790;-77.084;2024-01-30T10:26:24;101842.13;;;17.21;25.81
47809;BME280;33573;38.790;-77.084;2024-01-30T10:28:46;101845.36;;;17.48;25.80
47809;BME280;33573;38.790;-77.084;2024-01-30T10:31:15;101844.73;;;17.46;25.62
47809;BME280;33573;38.790;-77.084;2024-01-30T10:33:41;101845.30;;;17.54;25.58
47809;BME280;33573;38.790;-77.084;2024-01-30T10:36:03;101847.53;;;17.65;25.52
47809;BME280;33573;38.790;-77.084;2024-01-30T10:38:29;101847.66;;;17.74;25.48
47809;BME280;33573;38.790;-77.084;2024-01-30T10:40:57;101850.56;;;17.80;25.46
47809;BME280;33573;38.790;-77.084;2024-01-30T10:43:22;101850.04;;;17.86;25.43
47809;BME280;33573;38.790;-77.084;2024-01-30T10:45:45;101849.13;;;17.90;25.42
47809;BME280;33573;38.790;-77.084;2024-01-30T10:48:13;101849.63;;;17.60;25.54
47809;BME280;33573;38.790;-77.084;2024-01-30T10:50:35;101850.24;;;17.77;25.45
47809;BME280;33573;38.790;-77.084;2024-01-30T10:53:00;101851.27;;;18.07;25.48
47809;BME280;33573;38.790;-77.084;2024-01-30T10:55:27;101856.20;;;18.12;25.47
47809;BME280;33573;38.790;-77.084;2024-01-30T10:57:51;101860.77;;;18.18;25.46
47809;BME280;33573;38.790;-77.084;2024-01-30T11:00:13;101861.21;;;17.94;25.55
47809;BME280;33573;38.790;-77.084;2024-01-30T11:02:46;101868.15;;;17.90;25.81
47809;BME280;33573;38.790;-77.084;2024-01-30T11:05:08;101870.47;;;18.09;25.62
47809;BME280;33573;38.790;-77.084;2024-01-30T11:07:33;101872.27;;;18.14;25.66
47809;BME280;33573;38.790;-77.084;2024-01-30T11:10:03;101880.38;;;18.23;25.55
47809;BME280;33573;38.790;-77.084;2024-01-30T11:12:25;101881.57;;;18.04;25.60
47809;BME280;33573;38.790;-77.084;2024-01-30T11:14:50;101882.54;;;18.26;25.67
47809;BME280;33573;38.790;-77.084;2024-01-30T11:17:19;101882.10;;;18.17;25.77
47809;BME280;33573;38.790;-77.084;2024-01-30T11:19:42;101889.54;;;17.90;25.85
47809;BME280;33573;38.790;-77.084;2024-01-30T11:22:01;101892.15;;;18.04;25.93
47809;BME280;33573;38.790;-77.084;2024-01-30T11:24:39;101892.85;;;18.21;25.76
47809;BME280;33573;38.790;-77.084;2024-01-30T11:26:57;101890.27;;;18.26;25.77
47809;BME280;33573;38.790;-77.084;2024-01-30T11:29:25;101894.69;;;18.34;25.75
47809;BME280;33573;38.790;-77.084;2024-01-30T11:31:52;101897.81;;;18.38;25.74
47809;BME280;33573;38.790;-77.084;2024-01-30T11:34:15;101901.05;;;18.33;25.85
47809;BME280;33573;38.790;-77.084;2024-01-30T11:36:39;101902.07;;;18.26;25.95
47809;BME280;33573;38.790;-77.084;2024-01-30T11:39:08;101903.20;;;18.04;26.16
47809;BME280;33573;38.790;-77.084;2024-01-30T11:41:30;101915.19;;;17.92;26.28
47809;BME280;33573;38.790;-77.084;2024-01-30T11:43:55;101913.64;;;17.95;26.28
47809;BME280;33573;38.790;-77.084;2024-01-30T11:46:25;101909.87;;;17.93;26.21
47809;BME280;33573;38.790;-77.084;2024-01-30T11:48:46;101913.66;;;17.89;26.05
47809;BME280;33573;38.790;-77.084;2024-01-30T11:51:13;101927.08;;;17.90;26.12
47809;BME280;33573;38.790;-77.084;2024-01-30T11:53:32;101933.45;;;18.06;26.27
47809;BME280;33573;38.790;-77.084;2024-01-30T11:56:02;101944.84;;;18.12;26.23
47809;BME280;33573;38.790;-77.084;2024-01-30T11:58:28;101953.85;;;18.12;26.36
47809;BME280;33573;38.790;-77.084;2024-01-30T12:00:57;101956.43;;;18.04;26.42
47809;BME280;33573;38.790;-77.084;2024-01-30T12:03:19;101952.87;;;17.85;26.34
47809;BME280;33573;38.790;-77.084;2024-01-30T12:05:44;101949.51;;;18.00;26.22
47809;BME280;33573;38.790;-77.084;2024-01-30T12:08:15;101945.31;;;18.19;26.36
47809;BME280;33573;38.790;-77.084;2024-01-30T12:10:30;101946.71;;;18.29;26.32
47809;BME280;33573;38.790;-77.084;2024-01-30T12:13:02;101943.13;;;17.78;26.58
47809;BME280;33573;38.790;-77.084;2024-01-30T12:15:30;101943.53;;;18.05;26.52
47809;BME280;33573;38.790;-77.084;2024-01-30T12:17:51;101939.92;;;17.81;26.51
47809;BME280;33573;38.790;-77.084;2024-01-30T12:20:13;101942.72;;;17.99;26.33
47809;BME280;33573;38.790;-77.084;2024-01-30T12:22:47;101942.93;;;18.10;26.26
47809;BME280;33573;38.790;-77.084;2024-01-30T12:25:08;101944.00;;;18.28;26.38